createdAt,value
2022-12-13T00:02:57.788Z,16.65
2022-12-13T00:08:13.393Z,16.66
2022-12-13T00:13:28.429Z,16.67
2022-12-13T00:18:43.694Z,16.65
2022-12-13T00:23:59.366Z,16.65
2022-12-13T00:29:14.141Z,16.64
2022-12-13T00:34:29.642Z,16.65
2022-12-13T00:39:45.339Z,16.63
2022-12-13T00:45:00.321Z,16.63
2022-12-13T00:50:15.365Z,16.62
2022-12-13T00:55:31.583Z,16.61
2022-12-13T01:00:47.394Z,16.61
2022-12-13T01:06:14.705Z,16.60
2022-12-13T01:11:30.418Z,16.59
2022-12-13T01:16:45.542Z,16.59
2022-12-13T01:22:01.718Z,16.59
2022-12-13T01:27:18.384Z,16.58
2022-12-13T01:32:33.394Z,16.60
2022-12-13T01:37:48.401Z,16.63
2022-12-13T01:43:03.441Z,16.63
2022-12-13T01:48:30.384Z,16.62
2022-12-13T01:53:45.722Z,16.60
2022-12-13T01:59:01.680Z,16.59
2022-12-13T02:04:17.341Z,16.57
2022-12-13T02:09:32.339Z,16.59
2022-12-13T02:14:47.670Z,16.58
2022-12-13T02:20:04.457Z,16.58
2022-12-13T02:25:19.332Z,16.58
2022-12-13T02:30:35.418Z,16.57
2022-12-13T02:35:52.896Z,16.57
2022-12-13T02:41:08.384Z,16.55
2022-12-13T02:46:23.465Z,16.56
2022-12-13T02:51:38.407Z,16.53
2022-12-13T02:56:53.581Z,16.54
2022-12-13T03:02:10.621Z,16.56
2022-12-13T03:07:26.361Z,16.59
2022-12-13T03:12:41.435Z,16.56
2022-12-13T03:17:56.450Z,16.55
2022-12-13T03:23:12.392Z,16.53
2022-12-13T03:28:27.383Z,16.50
2022-12-13T03:33:42.339Z,16.51
2022-12-13T03:38:57.327Z,16.52
2022-12-13T03:44:12.392Z,16.51
2022-12-13T03:49:27.737Z,16.50
2022-12-13T03:54:51.531Z,16.49
2022-12-13T04:00:07.353Z,16.49
2022-12-13T04:05:22.411Z,16.48
2022-12-13T04:10:37.369Z,16.48
2022-12-13T04:15:52.414Z,16.46
2022-12-13T04:21:07.488Z,16.46
2022-12-13T04:26:22.386Z,16.45
2022-12-13T04:31:37.506Z,16.45
2022-12-13T04:36:52.337Z,16.51
2022-12-13T04:42:07.411Z,16.51
2022-12-13T04:47:22.608Z,16.48
2022-12-13T04:52:38.434Z,16.44
2022-12-13T04:57:53.405Z,16.40
2022-12-13T05:03:09.366Z,16.36
2022-12-13T05:08:24.566Z,16.32
2022-12-13T05:13:40.376Z,16.25
2022-12-13T05:18:55.391Z,16.26
2022-12-13T05:24:10.383Z,16.23
2022-12-13T05:29:25.692Z,16.19
2022-12-13T05:34:41.423Z,16.16
2022-12-13T05:39:56.349Z,16.12
2022-12-13T05:45:11.354Z,16.11
2022-12-13T05:50:26.641Z,16.07
2022-12-13T05:55:42.329Z,16.06
2022-12-13T06:00:57.404Z,16.02
2022-12-13T06:06:12.733Z,16.01
2022-12-13T06:11:31.978Z,15.98
2022-12-13T06:16:49.466Z,15.96
2022-12-13T06:22:04.722Z,15.94
2022-12-13T06:27:20.404Z,15.92
2022-12-13T06:32:37.194Z,15.90
2022-12-13T06:37:55.405Z,15.88
2022-12-13T06:43:17.477Z,15.84
2022-12-13T06:48:32.437Z,15.83
2022-12-13T06:53:47.481Z,15.81
2022-12-13T06:59:02.523Z,15.80
2022-12-13T07:04:29.455Z,15.79
2022-12-13T07:09:45.363Z,15.76
2022-12-13T07:15:00.359Z,15.74
2022-12-13T07:20:15.741Z,15.72
2022-12-13T07:25:31.393Z,15.71
2022-12-13T07:30:46.481Z,15.70
2022-12-13T07:36:01.437Z,15.68
2022-12-13T07:41:23.949Z,15.67
2022-12-13T07:46:42.222Z,15.66
2022-12-13T07:51:57.101Z,15.64
2022-12-13T07:57:12.474Z,15.62
2022-12-13T08:02:28.529Z,15.61
2022-12-13T08:07:43.375Z,15.60
2022-12-13T08:12:58.394Z,15.59
2022-12-13T08:18:13.419Z,15.57
2022-12-13T08:23:28.361Z,15.55
2022-12-13T08:28:43.391Z,15.54
2022-12-13T08:33:59.391Z,15.53
2022-12-13T08:39:52.106Z,15.50
2022-12-13T08:45:07.763Z,15.49
2022-12-13T08:50:23.418Z,15.47
2022-12-13T08:55:38.700Z,15.46
2022-12-13T09:00:54.838Z,15.47
2022-12-13T09:06:10.455Z,15.44
2022-12-13T09:11:32.924Z,15.43
2022-12-13T09:16:50.588Z,15.43
2022-12-13T09:22:06.352Z,15.42
2022-12-13T09:27:29.445Z,15.42
2022-12-13T09:32:44.870Z,15.40
2022-12-13T09:38:00.383Z,15.39
2022-12-13T09:43:22.945Z,15.39
2022-12-13T09:48:48.163Z,15.38
2022-12-13T09:54:07.620Z,15.36
2022-12-13T09:59:23.728Z,15.36
2022-12-13T10:04:39.368Z,15.34
2022-12-13T10:09:54.353Z,15.33
2022-12-13T10:15:09.733Z,15.33
2022-12-13T10:20:25.498Z,15.32
2022-12-13T10:25:40.477Z,15.31
2022-12-13T10:30:55.452Z,15.29
2022-12-13T10:36:10.365Z,15.30
2022-12-13T10:41:25.403Z,15.29
2022-12-13T10:46:40.362Z,15.29
2022-12-13T10:51:55.356Z,15.28
2022-12-13T10:57:11.771Z,15.28
2022-12-13T11:02:27.801Z,15.26
2022-12-13T11:07:43.446Z,15.26
2022-12-13T11:12:58.426Z,15.26
2022-12-13T11:18:13.754Z,15.24
2022-12-13T11:23:30.441Z,15.24
2022-12-13T11:28:45.753Z,15.23
2022-12-13T11:34:01.471Z,15.21
2022-12-13T11:39:16.381Z,15.21
2022-12-13T11:44:31.355Z,15.19
2022-12-13T11:49:46.548Z,15.13
2022-12-13T11:55:01.403Z,15.19
2022-12-13T12:00:16.367Z,15.18
2022-12-13T12:05:56.092Z,15.17
2022-12-13T12:11:11.410Z,15.17
2022-12-13T12:16:26.516Z,15.17
2022-12-13T12:27:22.644Z,15.16
2022-12-13T12:32:41.256Z,15.15
2022-12-13T12:37:56.450Z,15.15
2022-12-13T12:43:15.885Z,15.14
2022-12-13T12:54:07.720Z,15.14
2022-12-13T12:59:23.151Z,15.13
2022-12-13T13:04:38.714Z,15.12
2022-12-13T13:09:55.032Z,15.11
2022-12-13T13:15:10.417Z,15.10
2022-12-13T13:20:25.488Z,15.09
2022-12-13T13:26:00.445Z,15.09
2022-12-13T13:31:15.394Z,15.08
2022-12-13T13:36:30.355Z,15.08
2022-12-13T13:41:46.374Z,15.07
2022-12-13T13:47:01.438Z,15.07
2022-12-13T13:52:25.032Z,15.07
2022-12-13T13:58:08.393Z,15.06
2022-12-13T14:03:29.312Z,15.05
2022-12-13T14:08:48.409Z,15.04
2022-12-13T14:14:03.433Z,15.04
2022-12-13T14:19:18.428Z,15.01
2022-12-13T14:24:33.357Z,15.03
2022-12-13T14:29:58.202Z,15.02
2022-12-13T14:35:25.603Z,15.00
2022-12-13T14:40:42.477Z,14.99
2022-12-13T14:45:57.944Z,14.97
2022-12-13T14:51:13.763Z,14.94
2022-12-13T14:56:29.466Z,14.92
2022-12-13T15:01:44.370Z,14.91
2022-12-13T15:06:59.740Z,14.90
2022-12-13T15:12:24.662Z,14.89
2022-12-13T15:17:41.493Z,14.88
2022-12-13T15:23:00.751Z,14.87
2022-12-13T15:28:22.163Z,14.87
2022-12-13T15:33:48.128Z,14.89
2022-12-13T15:39:04.380Z,14.89
2022-12-13T15:44:19.459Z,14.88
2022-12-13T15:49:34.672Z,14.88
2022-12-13T15:54:50.206Z,14.86
2022-12-13T16:00:05.451Z,14.85
2022-12-13T16:05:23.391Z,14.82
2022-12-13T16:10:38.453Z,14.82
2022-12-13T16:15:53.438Z,14.80
2022-12-13T16:21:15.433Z,14.80
2022-12-13T16:26:30.181Z,14.78
2022-12-13T16:31:45.538Z,14.78
2022-12-13T16:37:00.484Z,14.78
2022-12-13T16:42:15.206Z,14.76
2022-12-13T16:47:43.155Z,14.76
2022-12-13T16:53:01.198Z,14.76
2022-12-13T16:58:19.486Z,14.75
2022-12-13T17:03:34.439Z,14.76
2022-12-13T17:08:49.462Z,14.76
2022-12-13T17:14:04.781Z,14.74
2022-12-13T17:19:20.183Z,14.75
2022-12-13T17:24:35.386Z,14.75
2022-12-13T17:29:50.413Z,14.74
2022-12-13T17:35:05.422Z,14.74
2022-12-13T17:40:20.428Z,14.74
2022-12-13T17:45:36.793Z,14.72
2022-12-13T17:50:52.207Z,14.73
2022-12-13T17:56:07.927Z,14.71
2022-12-13T18:01:23.470Z,14.71
2022-12-13T18:06:38.418Z,14.71
2022-12-13T18:11:53.527Z,14.72
2022-12-13T18:17:08.752Z,14.76
2022-12-13T18:22:24.423Z,14.82
2022-12-13T18:27:39.597Z,14.80
2022-12-13T18:32:54.467Z,14.78
2022-12-13T18:38:09.491Z,14.77
2022-12-13T18:43:24.195Z,14.76
2022-12-13T18:48:39.279Z,14.74
2022-12-13T18:53:54.430Z,14.74
2022-12-13T18:59:09.199Z,14.74
2022-12-13T19:04:24.958Z,14.73
2022-12-13T19:09:40.765Z,14.74
2022-12-13T19:14:56.450Z,14.82
2022-12-13T19:20:11.244Z,14.88
2022-12-13T19:25:26.205Z,14.94
2022-12-13T19:30:41.446Z,14.97
2022-12-13T19:35:56.496Z,14.99
2022-12-13T19:41:12.995Z,15.00
2022-12-13T19:46:28.553Z,15.02
2022-12-13T19:51:43.789Z,15.03
2022-12-13T19:57:06.900Z,15.04
2022-12-13T20:02:24.917Z,15.05
2022-12-13T20:07:41.636Z,15.04
2022-12-13T20:12:58.749Z,15.05
2022-12-13T20:18:14.508Z,15.06
2022-12-13T20:23:29.791Z,15.06
2022-12-13T20:28:45.526Z,15.07
2022-12-13T20:34:00.767Z,15.08
2022-12-13T20:39:16.512Z,15.10
2022-12-13T20:44:31.735Z,15.13
2022-12-13T20:49:48.296Z,15.13
2022-12-13T20:55:05.473Z,15.13
2022-12-13T21:00:20.622Z,15.14
2022-12-13T21:05:36.953Z,15.15
2022-12-13T21:10:52.831Z,15.16
2022-12-13T21:16:07.769Z,15.17
2022-12-13T21:21:23.503Z,15.19
2022-12-13T21:26:38.464Z,15.21
2022-12-13T21:31:53.468Z,15.21
2022-12-13T21:37:08.666Z,15.21
2022-12-13T21:42:24.864Z,15.23
2022-12-13T21:47:40.487Z,15.22
2022-12-13T21:52:55.697Z,15.24
2022-12-13T21:58:11.764Z,15.24
2022-12-13T22:03:27.491Z,15.25
2022-12-13T22:08:42.417Z,15.24
2022-12-13T22:13:57.848Z,15.25
2022-12-13T22:19:13.427Z,15.25
2022-12-13T22:24:28.429Z,15.25
2022-12-13T22:29:43.449Z,15.26
2022-12-13T22:34:58.441Z,15.26
2022-12-13T22:40:13.527Z,15.26
2022-12-13T22:45:28.506Z,15.26
2022-12-13T22:50:43.555Z,15.25
2022-12-13T22:55:58.765Z,15.25
2022-12-13T23:01:14.805Z,15.23
2022-12-13T23:06:30.236Z,15.23
2022-12-13T23:11:45.453Z,15.24
2022-12-13T23:17:00.802Z,15.27
2022-12-13T23:22:16.729Z,15.26
2022-12-13T23:27:32.552Z,15.24
2022-12-13T23:32:47.680Z,15.25
2022-12-13T23:38:03.412Z,15.24
2022-12-13T23:43:18.204Z,15.23
2022-12-13T23:48:33.925Z,15.23
2022-12-13T23:53:49.437Z,15.24
2022-12-13T23:59:04.487Z,15.28
